Time,TemperatureF,DewpointF,PressureIn,WindDirection,WindDirectionDegrees,WindSpeedMPH,WindSpeedGustMPH,Humidity,HourlyPrecipIn,Conditions,Clouds,dailyrainin,SolarRadiationWatts/m^2,SoftwareType,DateUTC
2013-05-30 00:00:00,72.4,64.0,29.92,East,81,3.0,5.0,75,0.00,,,0.00,0,WeatherCatV1.14B232,2013-05-30 04:00:00,
2013-05-30 00:01:00,72.4,64.0,29.92,SE,129,5.0,5.0,75,0.00,,,0.00,0,WeatherCatV1.14B232,2013-05-30 04:01:00,
2013-05-30 00:06:00,72.4,64.0,29.92,SE,124,5.0,6.0,75,0.00,,,0.00,0,WeatherCatV1.14B232,2013-05-30 04:06:00,
2013-05-30 00:11:00,72.4,64.0,29.92,ESE,114,2.0,6.0,75,0.00,,,0.00,0,WeatherCatV1.14B232,2013-05-30 04:11:00,
2013-05-30 00:16:00,72.3,63.9,29.92,ENE,76,1.0,4.0,75,0.00,,,0.00,0,WeatherCatV1.14B232,2013-05-30 04:16:00,
2013-05-30 00:17:00,72.3,63.9,29.92,ESE,107,2.0,6.0,75,0.00,,,0.00,0,WeatherCatV1.14B232,2013-05-30 04:17:00,
2013-05-30 00:22:00,72.2,64.2,29.92,West,273,1.0,4.0,76,0.00,,,0.00,0,WeatherCatV1.14B232,2013-05-30 04:22:00,
2013-05-30 00:27:00,72.2,64.2,29.92,East,82,1.0,6.0,76,0.00,,,0.00,0,WeatherCatV1.14B232,2013-05-30 04:27:00,
2013-05-30 00:32:00,72.0,64.0,29.92,ESE,108,4.0,6.0,76,0.00,,,0.00,0,WeatherCatV1.14B232,2013-05-30 04:32:00,
2013-05-30 00:37:00,71.9,64.3,29.92,SE,132,6.0,6.0,77,0.00,,,0.00,0,WeatherCatV1.14B232,2013-05-30 04:37:00,
2013-05-30 00:42:00,71.8,64.2,29.92,ESE,102,2.0,4.0,77,0.00,,,0.00,0,WeatherCatV1.14B232,2013-05-30 04:42:00,
2013-05-30 00:47:00,71.6,64.0,29.92,ESE,114,2.0,3.0,77,0.00,,,0.00,0,WeatherCatV1.14B232,2013-05-30 04:47:00,
2013-05-30 00:52:00,71.5,64.3,29.92,East,98,0.0,4.0,78,0.00,,,0.00,0,WeatherCatV1.14B232,2013-05-30 04:52:00,
2013-05-30 00:57:00,71.4,64.2,29.92,SW,222,0.0,3.0,78,0.00,,,0.00,0,WeatherCatV1.14B232,2013-05-30 04:57:00,
2013-05-30 01:02:00,71.3,64.1,29.92,ESE,106,4.0,5.0,78,0.00,,,0.00,0,WeatherCatV1.14B232,2013-05-30 05:02:00,
2013-05-30 01:07:00,71.4,64.2,29.92,SE,126,2.0,6.0,78,0.00,,,0.00,0,WeatherCatV1.14B232,2013-05-30 05:07:00,
2013-05-30 01:12:00,71.4,64.2,29.92,East,91,4.0,5.0,78,0.00,,,0.00,0,WeatherCatV1.14B232,2013-05-30 05:12:00,
2013-05-30 01:17:00,71.5,64.3,29.93,East,92,2.0,5.0,78,0.00,,,0.00,0,WeatherCatV1.14B232,2013-05-30 05:17:00,
2013-05-30 01:22:00,71.5,64.6,29.93,East,99,6.0,6.0,79,0.00,,,0.00,0,WeatherCatV1.14B232,2013-05-30 05:22:00,
2013-05-30 01:27:00,71.4,64.5,29.93,East,96,0.0,6.0,79,0.00,,,0.00,0,WeatherCatV1.14B232,2013-05-30 05:27:00,
2013-05-30 01:32:00,71.4,64.5,29.92,ESE,114,2.0,5.0,79,0.00,,,0.00,0,WeatherCatV1.14B232,2013-05-30 05:32:00,
2013-05-30 01:37:00,71.3,64.4,29.92,ESE,107,4.0,6.0,79,0.00,,,0.00,0,WeatherCatV1.14B232,2013-05-30 05:37:00,
2013-05-30 01:42:00,71.2,64.3,29.93,ESE,115,5.0,6.0,79,0.00,,,0.00,0,WeatherCatV1.14B232,2013-05-30 05:42:00,
2013-05-30 01:47:00,71.3,64.8,29.92,ESE,121,0.0,5.0,80,0.00,,,0.00,0,WeatherCatV1.14B232,2013-05-30 05:47:00,
2013-05-30 01:52:00,71.4,64.9,29.93,ESE,103,6.0,7.0,80,0.00,,,0.00,0,WeatherCatV1.14B232,2013-05-30 05:52:00,
2013-05-30 01:57:00,71.6,64.7,29.93,ESE,121,4.0,6.0,79,0.00,,,0.00,0,WeatherCatV1.14B232,2013-05-30 05:57:00,
2013-05-30 02:02:00,71.9,65.0,29.93,East,89,4.0,6.0,79,0.00,,,0.00,0,WeatherCatV1.14B232,2013-05-30 06:02:00,
2013-05-30 02:07:00,72.0,65.1,29.93,East,91,4.0,7.0,79,0.00,,,0.00,0,WeatherCatV1.14B232,2013-05-30 06:07:00,
2013-05-30 02:12:00,72.1,65.2,29.93,East,97,6.0,6.0,79,0.00,,,0.00,0,WeatherCatV1.14B232,2013-05-30 06:12:00,
2013-05-30 02:17:00,72.2,65.3,29.93,SE,133,4.0,5.0,79,0.00,,,0.00,0,WeatherCatV1.14B232,2013-05-30 06:17:00,
2013-05-30 02:22:00,72.2,65.3,29.93,ESE,117,4.0,6.0,79,0.00,,,0.00,0,WeatherCatV1.14B232,2013-05-30 06:22:00,
2013-05-30 02:27:00,72.2,65.3,29.93,ESE,105,4.0,6.0,79,0.00,,,0.00,0,WeatherCatV1.14B232,2013-05-30 06:27:00,
2013-05-30 02:32:00,72.2,65.3,29.93,ESE,123,6.0,6.0,79,0.00,,,0.00,0,WeatherCatV1.14B232,2013-05-30 06:32:00,
2013-05-30 02:37:00,72.1,65.2,29.93,ESE,104,6.0,6.0,79,0.00,,,0.00,0,WeatherCatV1.14B232,2013-05-30 06:37:00,
2013-05-30 02:42:00,72.0,65.5,29.92,East,80,2.0,5.0,80,0.00,,,0.00,0,WeatherCatV1.14B232,2013-05-30 06:42:00,
2013-05-30 02:47:00,71.9,65.4,29.92,East,98,1.0,5.0,80,0.00,,,0.00,0,WeatherCatV1.14B232,2013-05-30 06:47:00,
2013-05-30 02:52:00,71.8,65.3,29.92,SW,236,2.0,4.0,80,0.00,,,0.00,0,WeatherCatV1.14B232,2013-05-30 06:52:00,
2013-05-30 02:57:00,71.7,65.5,29.92,ESE,108,0.0,6.0,81,0.00,,,0.00,0,WeatherCatV1.14B232,2013-05-30 06:57:00,
2013-05-30 03:02:00,71.8,65.6,29.92,East,94,0.0,6.0,81,0.00,,,0.00,0,WeatherCatV1.14B232,2013-05-30 07:02:00,
2013-05-30 03:07:00,71.9,65.7,29.92,ESE,119,2.0,4.0,81,0.00,,,0.00,0,WeatherCatV1.14B232,2013-05-30 07:07:00,
2013-05-30 03:12:00,72.1,65.9,29.92,ESE,105,1.0,2.0,81,0.00,,,0.00,0,WeatherCatV1.14B232,2013-05-30 07:12:00,
2013-05-30 03:17:00,72.2,66.0,29.92,ESE,107,4.0,4.0,81,0.00,,,0.00,0,WeatherCatV1.14B232,2013-05-30 07:17:00,
2013-05-30 03:22:00,72.3,66.1,29.93,East,90,1.0,6.0,81,0.00,,,0.00,0,WeatherCatV1.14B232,2013-05-30 07:22:00,
2013-05-30 03:27:00,72.3,66.1,29.93,ESE,111,2.0,4.0,81,0.00,,,0.00,0,WeatherCatV1.14B232,2013-05-30 07:27:00,
2013-05-30 03:32:00,72.3,66.1,29.93,ESE,106,0.0,4.0,81,0.00,,,0.00,0,WeatherCatV1.14B232,2013-05-30 07:32:00,
2013-05-30 03:37:00,72.3,66.1,29.93,East,101,2.0,5.0,81,0.00,,,0.00,0,WeatherCatV1.14B232,2013-05-30 07:37:00,
2013-05-30 03:42:00,72.1,65.9,29.93,SW,234,3.0,5.0,81,0.00,,,0.00,0,WeatherCatV1.14B232,2013-05-30 07:42:00,
2013-05-30 03:47:00,71.8,65.6,29.93,WNW,285,1.0,5.0,81,0.00,,,0.00,0,WeatherCatV1.14B232,2013-05-30 07:47:00,
2013-05-30 03:52:00,71.5,65.4,29.93,SW,235,2.0,5.0,81,0.00,,,0.00,0,WeatherCatV1.14B232,2013-05-30 07:52:00,
2013-05-30 03:57:00,71.3,65.5,29.92,ESE,109,1.0,6.0,82,0.00,,,0.00,0,WeatherCatV1.14B232,2013-05-30 07:57:00,
2013-05-30 04:02:00,71.2,65.4,29.93,SE,142,1.0,4.0,82,0.00,,,0.00,0,WeatherCatV1.14B232,2013-05-30 08:02:00,
2013-05-30 04:07:00,71.2,65.8,29.93,East,84,2.0,5.0,83,0.00,,,0.00,0,WeatherCatV1.14B232,2013-05-30 08:07:00,
2013-05-30 04:12:00,71.2,65.8,29.93,East,94,1.0,5.0,83,0.00,,,0.00,0,WeatherCatV1.14B232,2013-05-30 08:12:00,
2013-05-30 04:17:00,71.1,65.7,29.93,East,90,1.0,6.0,83,0.00,,,0.00,0,WeatherCatV1.14B232,2013-05-30 08:17:00,
2013-05-30 04:22:00,71.0,65.6,29.93,East,90,2.0,5.0,83,0.00,,,0.00,0,WeatherCatV1.14B232,2013-05-30 08:22:00,
2013-05-30 04:27:00,70.8,65.4,29.93,ESE,115,5.0,7.0,83,0.00,,,0.00,0,WeatherCatV1.14B232,2013-05-30 08:27:00,
2013-05-30 04:32:00,70.5,65.1,29.93,ESE,114,4.0,6.0,83,0.00,,,0.00,0,WeatherCatV1.14B232,2013-05-30 08:32:00,
2013-05-30 04:37:00,70.3,65.2,29.92,ESE,104,0.0,6.0,84,0.00,,,0.00,0,WeatherCatV1.14B232,2013-05-30 08:37:00,
2013-05-30 04:42:00,70.2,65.5,29.93,SE,126,1.0,5.0,85,0.00,,,0.00,0,WeatherCatV1.14B232,2013-05-30 08:42:00,
2013-05-30 04:47:00,70.1,65.4,29.93,East,90,1.0,5.0,85,0.00,,,0.00,0,WeatherCatV1.14B232,2013-05-30 08:47:00,
2013-05-30 04:52:00,70.0,65.3,29.93,East,97,4.0,5.0,85,0.00,,,0.00,0,WeatherCatV1.14B232,2013-05-30 08:52:00,
2013-05-30 04:57:00,69.9,65.5,29.93,SE,128,0.0,5.0,86,0.00,,,0.00,0,WeatherCatV1.14B232,2013-05-30 08:57:00,
2013-05-30 05:02:00,69.8,65.4,29.93,East,98,2.0,4.0,86,0.00,,,0.00,0,WeatherCatV1.14B232,2013-05-30 09:02:00,
2013-05-30 05:07:00,69.9,65.5,29.93,ESE,108,1.0,5.0,86,0.00,,,0.00,0,WeatherCatV1.14B232,2013-05-30 09:07:00,
2013-05-30 05:12:00,70.0,65.9,29.93,ESE,119,0.0,6.0,87,0.00,,,0.00,0,WeatherCatV1.14B232,2013-05-30 09:12:00,
2013-05-30 05:17:00,70.1,66.0,29.93,WSW,254,2.0,5.0,87,0.00,,,0.00,0,WeatherCatV1.14B232,2013-05-30 09:17:00,
2013-05-30 05:22:00,70.2,66.1,29.93,ESE,103,1.0,4.0,87,0.00,,,0.00,0,WeatherCatV1.14B232,2013-05-30 09:22:00,
2013-05-30 05:27:00,70.2,66.1,29.94,ESE,120,1.0,4.0,87,0.00,,,0.00,0,WeatherCatV1.14B232,2013-05-30 09:27:00,
2013-05-30 05:32:00,70.2,66.1,29.94,ESE,107,2.0,2.0,87,0.00,,,0.00,0,WeatherCatV1.14B232,2013-05-30 09:32:00,
2013-05-30 05:37:00,70.2,66.1,29.94,ESE,117,4.0,5.0,87,0.00,,,0.00,0,WeatherCatV1.14B232,2013-05-30 09:37:00,
2013-05-30 05:42:00,70.1,66.0,29.94,East,96,0.0,5.0,87,0.00,,,0.00,5,WeatherCatV1.14B232,2013-05-30 09:42:00,
2013-05-30 05:47:00,70.1,66.0,29.94,ESE,110,0.0,4.0,87,0.00,,,0.00,7,WeatherCatV1.14B232,2013-05-30 09:47:00,
2013-05-30 05:52:00,70.2,66.5,29.94,South,186,0.0,4.0,88,0.00,,,0.00,9,WeatherCatV1.14B232,2013-05-30 09:52:00,
2013-05-30 05:57:00,70.4,66.3,29.94,ESE,102,1.0,4.0,87,0.00,,,0.00,11,WeatherCatV1.14B232,2013-05-30 09:57:00,
2013-05-30 06:02:00,70.4,66.3,29.94,ESE,104,0.0,4.0,87,0.00,,,0.00,14,WeatherCatV1.14B232,2013-05-30 10:02:00,
2013-05-30 06:07:00,70.5,66.4,29.95,East,98,1.0,1.0,87,0.00,,,0.00,18,WeatherCatV1.14B232,2013-05-30 10:07:00,
2013-05-30 06:12:00,70.8,66.7,29.95,ESE,113,0.0,2.0,87,0.00,,,0.00,19,WeatherCatV1.14B232,2013-05-30 10:12:00,
2013-05-30 06:17:00,71.0,66.9,29.95,ESE,112,2.0,2.0,87,0.00,,,0.00,21,WeatherCatV1.14B232,2013-05-30 10:17:00,
2013-05-30 06:22:00,71.2,66.8,29.95,ESE,111,1.0,2.0,86,0.00,,,0.00,25,WeatherCatV1.14B232,2013-05-30 10:22:00,
2013-05-30 06:27:00,71.3,66.9,29.96,East,96,2.0,2.0,86,0.00,,,0.00,26,WeatherCatV1.14B232,2013-05-30 10:27:00,
2013-05-30 06:32:00,71.3,66.9,29.96,East,99,2.0,2.0,86,0.00,,,0.00,28,WeatherCatV1.14B232,2013-05-30 10:32:00,
2013-05-30 06:37:00,71.4,67.0,29.96,ESE,104,2.0,4.0,86,0.00,,,0.00,30,WeatherCatV1.14B232,2013-05-30 10:37:00,
2013-05-30 06:42:00,71.4,67.0,29.96,ESE,105,0.0,2.0,86,0.00,,,0.00,33,WeatherCatV1.14B232,2013-05-30 10:42:00,
2013-05-30 06:47:00,71.5,67.1,29.96,ESE,109,2.0,4.0,86,0.00,,,0.00,33,WeatherCatV1.14B232,2013-05-30 10:47:00,
2013-05-30 06:52:00,71.5,67.1,29.95,NW,317,2.0,5.0,86,0.00,,,0.00,35,WeatherCatV1.14B232,2013-05-30 10:52:00,
2013-05-30 06:57:00,71.6,67.2,29.96,ESE,108,2.0,2.0,86,0.00,,,0.00,37,WeatherCatV1.14B232,2013-05-30 10:57:00,
2013-05-30 07:02:00,71.7,67.3,29.96,East,91,2.0,6.0,86,0.00,,,0.00,39,WeatherCatV1.14B232,2013-05-30 11:02:00,
2013-05-30 07:07:00,71.8,67.0,29.96,East,101,2.0,5.0,85,0.00,,,0.00,40,WeatherCatV1.14B232,2013-05-30 11:07:00,
2013-05-30 07:12:00,71.8,67.4,29.96,ESE,110,2.0,5.0,86,0.00,,,0.00,40,WeatherCatV1.14B232,2013-05-30 11:12:00,
2013-05-30 07:17:00,71.9,67.5,29.96,ESE,107,0.0,4.0,86,0.00,,,0.00,42,WeatherCatV1.14B232,2013-05-30 11:17:00,
2013-05-30 07:22:00,72.2,67.4,29.96,ESE,107,1.0,2.0,85,0.00,,,0.00,44,WeatherCatV1.14B232,2013-05-30 11:22:00,
2013-05-30 07:27:00,72.6,67.8,29.96,ESE,107,1.0,4.0,85,0.00,,,0.00,44,WeatherCatV1.14B232,2013-05-30 11:27:00,
2013-05-30 07:32:00,73.2,68.4,29.97,East,101,1.0,4.0,85,0.00,,,0.00,46,WeatherCatV1.14B232,2013-05-30 11:32:00,
2013-05-30 07:37:00,73.5,68.4,29.97,ESE,107,1.0,2.0,84,0.00,,,0.00,49,WeatherCatV1.14B232,2013-05-30 11:37:00,
2013-05-30 07:42:00,73.8,68.7,29.97,ESE,115,0.0,2.0,84,0.00,,,0.00,49,WeatherCatV1.14B232,2013-05-30 11:42:00,
2013-05-30 07:47:00,73.9,68.7,29.97,South,185,0.0,2.0,84,0.00,,,0.00,60,WeatherCatV1.14B232,2013-05-30 11:47:00,
2013-05-30 07:52:00,74.2,69.0,29.97,South,191,0.0,1.0,84,0.00,,,0.00,51,WeatherCatV1.14B232,2013-05-30 11:52:00,
2013-05-30 07:57:00,74.6,68.7,29.97,SW,218,1.0,6.0,82,0.00,,,0.00,81,WeatherCatV1.14B232,2013-05-30 11:57:00,
2013-05-30 08:02:00,74.9,69.4,29.97,South,177,0.0,2.0,83,0.00,,,0.00,53,WeatherCatV1.14B232,2013-05-30 12:02:00,
2013-05-30 08:07:00,75.0,69.1,29.97,ESE,120,4.0,4.0,82,0.00,,,0.00,54,WeatherCatV1.14B232,2013-05-30 12:07:00,
2013-05-30 08:12:00,75.3,69.1,29.97,ESE,109,4.0,5.0,81,0.00,,,0.00,56,WeatherCatV1.14B232,2013-05-30 12:12:00,
2013-05-30 08:17:00,75.7,69.4,29.97,ESE,103,1.0,5.0,81,0.00,,,0.00,58,WeatherCatV1.14B232,2013-05-30 12:17:00,
2013-05-30 08:22:00,76.0,69.4,29.97,SSW,203,0.0,2.0,80,0.00,,,0.00,60,WeatherCatV1.14B232,2013-05-30 12:22:00,
2013-05-30 08:27:00,76.2,69.6,29.97,South,186,0.0,2.0,80,0.00,,,0.00,62,WeatherCatV1.14B232,2013-05-30 12:27:00,
2013-05-30 08:32:00,76.1,69.8,29.97,South,186,0.0,0.0,81,0.00,,,0.00,65,WeatherCatV1.14B232,2013-05-30 12:32:00,
2013-05-30 08:37:00,76.5,69.9,29.97,ESE,107,0.0,4.0,80,0.00,,,0.00,63,WeatherCatV1.14B232,2013-05-30 12:37:00,
2013-05-30 08:42:00,76.9,69.5,29.97,ESE,107,0.0,0.0,78,0.00,,,0.00,65,WeatherCatV1.14B232,2013-05-30 12:42:00,
2013-05-30 08:47:00,77.2,69.8,29.97,WSW,242,0.0,4.0,78,0.00,,,0.00,67,WeatherCatV1.14B232,2013-05-30 12:47:00,
2013-05-30 08:52:00,77.0,70.0,29.97,WNW,299,0.0,2.0,79,0.00,,,0.00,69,WeatherCatV1.14B232,2013-05-30 12:52:00,
2013-05-30 08:57:00,77.1,69.7,29.97,WSW,246,0.0,2.0,78,0.00,,,0.00,70,WeatherCatV1.14B232,2013-05-30 12:57:00,
2013-05-30 09:02:00,76.9,69.1,29.97,WNW,283,0.0,0.0,77,0.00,,,0.00,72,WeatherCatV1.14B232,2013-05-30 13:02:00,
2013-05-30 09:07:00,77.1,69.7,29.97,West,273,1.0,1.0,78,0.00,,,0.00,74,WeatherCatV1.14B232,2013-05-30 13:07:00,
2013-05-30 09:12:00,77.8,69.2,29.97,SSW,209,0.0,2.0,75,0.00,,,0.00,76,WeatherCatV1.14B232,2013-05-30 13:12:00,
2013-05-30 09:17:00,77.9,68.9,29.97,NW,306,0.0,2.0,74,0.00,,,0.00,79,WeatherCatV1.14B232,2013-05-30 13:17:00,
2013-05-30 09:22:00,78.0,69.0,29.97,WNW,299,0.0,0.0,74,0.00,,,0.00,81,WeatherCatV1.14B232,2013-05-30 13:22:00,
2013-05-30 09:27:00,78.7,68.9,29.97,SW,216,0.0,1.0,72,0.00,,,0.00,83,WeatherCatV1.14B232,2013-05-30 13:27:00,
2013-05-30 09:32:00,78.8,69.0,29.97,WNW,287,0.0,1.0,72,0.00,,,0.00,84,WeatherCatV1.14B232,2013-05-30 13:32:00,
2013-05-30 09:37:00,79.3,69.1,29.97,WSW,255,0.0,0.0,71,0.00,,,0.00,86,WeatherCatV1.14B232,2013-05-30 13:37:00,
2013-05-30 09:42:00,79.4,68.7,29.97,NW,305,0.0,0.0,70,0.00,,,0.00,88,WeatherCatV1.14B232,2013-05-30 13:42:00,
2013-05-30 09:47:00,79.8,69.1,29.97,West,265,0.0,2.0,70,0.00,,,0.00,90,WeatherCatV1.14B232,2013-05-30 13:47:00,
2013-05-30 09:52:00,80.2,68.2,29.97,West,260,0.0,0.0,67,0.00,,,0.00,107,WeatherCatV1.14B232,2013-05-30 13:52:00,
2013-05-30 09:57:00,80.7,69.6,29.97,SSE,161,0.0,1.0,69,0.00,,,0.00,97,WeatherCatV1.14B232,2013-05-30 13:57:00,
2013-05-30 10:02:00,80.5,69.4,29.97,WSW,242,0.0,1.0,69,0.00,,,0.00,98,WeatherCatV1.14B232,2013-05-30 14:02:00,
2013-05-30 10:07:00,81.1,69.1,29.97,West,275,0.0,0.0,67,0.00,,,0.00,123,WeatherCatV1.14B232,2013-05-30 14:07:00,
2013-05-30 10:12:00,81.4,69.8,29.97,West,275,0.0,0.0,68,0.00,,,0.00,211,WeatherCatV1.14B232,2013-05-30 14:12:00,
2013-05-30 10:17:00,81.8,68.9,29.97,WSW,237,0.0,0.0,65,0.00,,,0.00,116,WeatherCatV1.14B232,2013-05-30 14:17:00,
2013-05-30 10:22:00,81.9,69.4,29.97,West,277,0.0,0.0,66,0.00,,,0.00,701,WeatherCatV1.14B232,2013-05-30 14:22:00,
2013-05-30 10:27:00,82.9,69.0,29.97,West,277,0.0,0.0,63,0.00,,,0.00,722,WeatherCatV1.14B232,2013-05-30 14:27:00,
2013-05-30 10:32:00,83.1,68.7,29.97,West,277,0.0,0.0,62,0.00,,,0.00,738,WeatherCatV1.14B232,2013-05-30 14:32:00,
2013-05-30 10:37:00,84.0,68.6,29.97,SW,236,0.0,0.0,60,0.00,,,0.00,747,WeatherCatV1.14B232,2013-05-30 14:37:00,
2013-05-30 10:42:00,84.1,67.7,29.97,SW,236,0.0,0.0,58,0.00,,,0.00,766,WeatherCatV1.14B232,2013-05-30 14:42:00,
2013-05-30 10:47:00,84.4,69.4,29.97,WNW,292,1.0,1.0,61,0.00,,,0.00,775,WeatherCatV1.14B232,2013-05-30 14:47:00,
2013-05-30 10:52:00,84.8,69.3,29.97,WNW,293,0.0,0.0,60,0.00,,,0.00,793,WeatherCatV1.14B232,2013-05-30 14:52:00,
2013-05-30 10:57:00,84.7,70.2,29.97,ENE,57,0.0,0.0,62,0.00,,,0.00,805,WeatherCatV1.14B232,2013-05-30 14:57:00,
2013-05-30 11:02:00,84.9,68.9,29.97,NNW,340,0.0,0.0,59,0.00,,,0.00,809,WeatherCatV1.14B232,2013-05-30 15:02:00,
2013-05-30 11:07:00,85.8,70.3,29.97,NNW,339,0.0,2.0,60,0.00,,,0.00,823,WeatherCatV1.14B232,2013-05-30 15:07:00,
2013-05-30 11:12:00,86.1,69.1,29.97,NNW,339,0.0,0.0,57,0.00,,,0.00,830,WeatherCatV1.14B232,2013-05-30 15:12:00,
2013-05-30 11:17:00,86.6,69.5,29.97,NW,325,1.0,2.0,57,0.00,,,0.00,846,WeatherCatV1.14B232,2013-05-30 15:17:00,
2013-05-30 11:22:00,87.0,68.8,29.97,NW,317,0.0,3.0,55,0.00,,,0.00,851,WeatherCatV1.14B232,2013-05-30 15:22:00,
2013-05-30 11:27:00,87.1,68.9,29.97,WNW,300,0.0,2.0,55,0.00,,,0.00,860,WeatherCatV1.14B232,2013-05-30 15:27:00,
2013-05-30 11:32:00,87.5,69.8,29.97,WNW,300,0.0,1.0,56,0.00,,,0.00,868,WeatherCatV1.14B232,2013-05-30 15:32:00,
2013-05-30 11:37:00,87.8,69.0,29.97,WNW,300,1.0,2.0,54,0.00,,,0.00,881,WeatherCatV1.14B232,2013-05-30 15:37:00,
2013-05-30 11:42:00,88.3,68.4,29.97,WNW,300,0.0,1.0,52,0.00,,,0.00,886,WeatherCatV1.14B232,2013-05-30 15:42:00,
2013-05-30 11:47:00,88.4,68.5,29.97,WNW,300,0.0,2.0,52,0.00,,,0.00,896,WeatherCatV1.14B232,2013-05-30 15:47:00,
2013-05-30 11:52:00,88.8,69.4,29.97,WSW,247,0.0,2.0,53,0.00,,,0.00,896,WeatherCatV1.14B232,2013-05-30 15:52:00,
2013-05-30 11:57:00,88.8,69.4,29.97,ESE,115,5.0,5.0,53,0.00,,,0.00,904,WeatherCatV1.14B232,2013-05-30 15:57:00,
2013-05-30 12:02:00,89.5,68.9,29.97,SSW,196,0.0,1.0,51,0.00,,,0.00,914,WeatherCatV1.14B232,2013-05-30 16:02:00,
2013-05-30 12:07:00,89.4,68.8,29.97,NW,310,0.0,0.0,51,0.00,,,0.00,907,WeatherCatV1.14B232,2013-05-30 16:07:00,
2013-05-30 12:12:00,89.7,69.1,29.97,NW,310,0.0,0.0,51,0.00,,,0.00,918,WeatherCatV1.14B232,2013-05-30 16:12:00,
2013-05-30 12:17:00,89.9,68.7,29.97,NW,310,0.0,2.0,50,0.00,,,0.00,925,WeatherCatV1.14B232,2013-05-30 16:17:00,
2013-05-30 12:22:00,90.3,67.9,29.97,NW,306,1.0,2.0,48,0.00,,,0.00,925,WeatherCatV1.14B232,2013-05-30 16:22:00,
2013-05-30 12:27:00,90.4,68.0,29.97,NW,312,0.0,1.0,48,0.00,,,0.00,923,WeatherCatV1.14B232,2013-05-30 16:27:00,
2013-05-30 12:32:00,90.7,69.5,29.97,NW,312,0.0,2.0,50,0.00,,,0.00,933,WeatherCatV1.14B232,2013-05-30 16:32:00,
2013-05-30 12:37:00,91.5,69.0,29.96,ESE,107,4.0,4.0,48,0.00,,,0.00,914,WeatherCatV1.14B232,2013-05-30 16:37:00,
2013-05-30 12:42:00,91.2,68.1,29.96,SW,229,1.0,1.0,47,0.00,,,0.00,946,WeatherCatV1.14B232,2013-05-30 16:42:00,
2013-05-30 12:47:00,91.0,68.5,29.96,NW,326,0.0,2.0,48,0.00,,,0.00,946,WeatherCatV1.14B232,2013-05-30 16:47:00,
2013-05-30 12:52:00,91.0,67.9,29.96,WNW,303,0.0,2.0,47,0.00,,,0.00,932,WeatherCatV1.14B232,2013-05-30 16:52:00,
2013-05-30 12:57:00,91.6,67.2,29.96,WNW,302,0.0,2.0,45,0.00,,,0.00,926,WeatherCatV1.14B232,2013-05-30 16:57:00,
2013-05-30 13:02:00,91.6,67.8,29.96,WNW,303,0.0,2.0,46,0.00,,,0.00,939,WeatherCatV1.14B232,2013-05-30 17:02:00,
2013-05-30 13:07:00,92.1,65.7,29.96,ENE,76,1.0,3.0,42,0.00,,,0.00,923,WeatherCatV1.14B232,2013-05-30 17:07:00,
2013-05-30 13:12:00,92.2,66.4,29.96,ESE,116,0.0,2.0,43,0.00,,,0.00,925,WeatherCatV1.14B232,2013-05-30 17:12:00,
2013-05-30 13:17:00,91.0,67.3,29.96,WNW,292,0.0,3.0,46,0.00,,,0.00,956,WeatherCatV1.14B232,2013-05-30 17:17:00,
2013-05-30 13:22:00,91.9,66.8,29.96,SW,230,2.0,3.0,44,0.00,,,0.00,928,WeatherCatV1.14B232,2013-05-30 17:22:00,
2013-05-30 13:27:00,92.4,65.9,29.95,WSW,243,1.0,3.0,42,0.00,,,0.00,935,WeatherCatV1.14B232,2013-05-30 17:27:00,
2013-05-30 13:32:00,92.2,67.7,29.95,ESE,117,0.0,4.0,45,0.00,,,0.00,916,WeatherCatV1.14B232,2013-05-30 17:32:00,
2013-05-30 13:37:00,92.0,65.6,29.95,SE,132,0.0,3.0,42,0.00,,,0.00,925,WeatherCatV1.14B232,2013-05-30 17:37:00,
2013-05-30 13:42:00,91.6,67.2,29.95,WSW,243,0.0,4.0,45,0.00,,,0.00,912,WeatherCatV1.14B232,2013-05-30 17:42:00,
2013-05-30 13:47:00,91.2,66.8,29.94,WSW,243,1.0,1.0,45,0.00,,,0.00,940,WeatherCatV1.14B232,2013-05-30 17:47:00,
2013-05-30 13:52:00,91.3,66.9,29.94,West,274,0.0,2.0,45,0.00,,,0.00,909,WeatherCatV1.14B232,2013-05-30 17:52:00,
2013-05-30 13:57:00,91.5,65.8,29.94,ESE,106,4.0,5.0,43,0.00,,,0.00,438,WeatherCatV1.14B232,2013-05-30 17:57:00,
2013-05-30 14:02:00,90.8,67.7,29.94,NE,47,0.0,3.0,47,0.00,,,0.00,882,WeatherCatV1.14B232,2013-05-30 18:02:00,
2013-05-30 14:07:00,91.5,69.0,29.94,West,276,0.0,2.0,48,0.00,,,0.00,933,WeatherCatV1.14B232,2013-05-30 18:07:00,
2013-05-30 14:12:00,92.0,68.2,29.94,WNW,296,0.0,2.0,46,0.00,,,0.00,160,WeatherCatV1.14B232,2013-05-30 18:12:00,
2013-05-30 14:17:00,89.5,67.8,29.94,West,259,1.0,2.0,49,0.00,,,0.00,148,WeatherCatV1.14B232,2013-05-30 18:17:00,
2013-05-30 14:22:00,90.1,67.7,29.94,WSW,242,1.0,4.0,48,0.00,,,0.00,875,WeatherCatV1.14B232,2013-05-30 18:22:00,
2013-05-30 14:27:00,91.0,66.7,29.94,WSW,245,5.0,6.0,45,0.00,,,0.00,902,WeatherCatV1.14B232,2013-05-30 18:27:00,
2013-05-30 14:32:00,90.2,67.2,29.94,WSW,241,1.0,3.0,47,0.00,,,0.00,888,WeatherCatV1.14B232,2013-05-30 18:32:00,
2013-05-30 14:37:00,90.6,66.9,29.94,ESE,103,2.0,6.0,46,0.00,,,0.00,812,WeatherCatV1.14B232,2013-05-30 18:37:00,
2013-05-30 14:42:00,91.2,69.3,29.94,WSW,245,1.0,2.0,49,0.00,,,0.00,840,WeatherCatV1.14B232,2013-05-30 18:42:00,
2013-05-30 14:47:00,90.9,67.8,29.93,SW,232,1.0,6.0,47,0.00,,,0.00,831,WeatherCatV1.14B232,2013-05-30 18:47:00,
2013-05-30 14:52:00,91.0,67.9,29.94,East,95,1.0,5.0,47,0.00,,,0.00,788,WeatherCatV1.14B232,2013-05-30 18:52:00,
2013-05-30 14:57:00,91.0,66.7,29.94,ESE,114,6.0,7.0,45,0.00,,,0.00,782,WeatherCatV1.14B232,2013-05-30 18:57:00,
2013-05-30 15:02:00,90.6,66.9,29.93,SW,232,1.0,5.0,46,0.00,,,0.00,779,WeatherCatV1.14B232,2013-05-30 19:02:00,
2013-05-30 15:07:00,90.4,69.2,29.93,NE,51,3.0,3.0,50,0.00,,,0.00,712,WeatherCatV1.14B232,2013-05-30 19:07:00,
2013-05-30 15:12:00,90.8,66.5,29.93,ESE,104,4.0,8.0,45,0.00,,,0.00,756,WeatherCatV1.14B232,2013-05-30 19:12:00,
2013-05-30 15:17:00,90.4,66.8,29.93,WSW,242,3.0,3.0,46,0.00,,,0.00,141,WeatherCatV1.14B232,2013-05-30 19:17:00,
2013-05-30 15:22:00,89.7,65.5,29.93,SE,128,4.0,9.0,45,0.00,,,0.00,171,WeatherCatV1.14B232,2013-05-30 19:22:00,
2013-05-30 15:27:00,89.6,66.7,29.93,South,182,0.0,5.0,47,0.00,,,0.00,724,WeatherCatV1.14B232,2013-05-30 19:27:00,
2013-05-30 15:32:00,89.8,66.2,29.93,WSW,240,5.0,6.0,46,0.00,,,0.00,703,WeatherCatV1.14B232,2013-05-30 19:32:00,
2013-05-30 15:37:00,90.3,67.3,29.92,ESE,116,2.0,2.0,47,0.00,,,0.00,682,WeatherCatV1.14B232,2013-05-30 19:37:00,
2013-05-30 15:42:00,90.3,66.7,29.92,ESE,114,6.0,6.0,46,0.00,,,0.00,670,WeatherCatV1.14B232,2013-05-30 19:42:00,
2013-05-30 15:47:00,90.1,65.9,29.92,West,267,2.0,6.0,45,0.00,,,0.00,671,WeatherCatV1.14B232,2013-05-30 19:47:00,
2013-05-30 15:52:00,89.8,66.2,29.92,North,11,1.0,8.0,46,0.00,,,0.00,659,WeatherCatV1.14B232,2013-05-30 19:52:00,
2013-05-30 15:57:00,89.7,67.4,29.92,ESE,108,4.0,6.0,48,0.00,,,0.00,253,WeatherCatV1.14B232,2013-05-30 19:57:00,
2013-05-30 16:02:00,89.5,66.6,29.92,East,100,5.0,5.0,47,0.00,,,0.00,290,WeatherCatV1.14B232,2013-05-30 20:02:00,
2013-05-30 16:07:00,89.4,66.5,29.92,ENE,67,2.0,7.0,47,0.00,,,0.00,439,WeatherCatV1.14B232,2013-05-30 20:07:00,
2013-05-30 16:12:00,88.9,67.2,29.92,SE,126,5.0,5.0,49,0.00,,,0.00,142,WeatherCatV1.14B232,2013-05-30 20:12:00,
2013-05-30 16:17:00,88.8,66.5,29.92,East,98,5.0,8.0,48,0.00,,,0.00,116,WeatherCatV1.14B232,2013-05-30 20:17:00,
2013-05-30 16:22:00,88.3,66.7,29.92,ESE,123,2.0,5.0,49,0.00,,,0.00,111,WeatherCatV1.14B232,2013-05-30 20:22:00,
2013-05-30 16:27:00,87.8,66.8,29.91,ESE,107,9.0,9.0,50,0.00,,,0.00,109,WeatherCatV1.14B232,2013-05-30 20:27:00,
2013-05-30 16:32:00,87.3,66.3,29.92,ESE,110,6.0,12.0,50,0.00,,,0.00,104,WeatherCatV1.14B232,2013-05-30 20:32:00,
2013-05-30 16:37:00,86.9,66.6,29.92,ESE,107,6.0,9.0,51,0.00,,,0.00,116,WeatherCatV1.14B232,2013-05-30 20:37:00,
2013-05-30 16:42:00,86.6,66.8,29.92,SSE,160,1.0,6.0,52,0.00,,,0.00,107,WeatherCatV1.14B232,2013-05-30 20:42:00,
2013-05-30 16:47:00,86.4,66.7,29.92,SE,127,1.0,7.0,52,0.00,,,0.00,105,WeatherCatV1.14B232,2013-05-30 20:47:00,
2013-05-30 16:52:00,86.2,66.5,29.92,East,92,1.0,8.0,52,0.00,,,0.00,104,WeatherCatV1.14B232,2013-05-30 20:52:00,
2013-05-30 16:57:00,86.0,67.4,29.92,ESE,109,2.0,6.0,54,0.00,,,0.00,98,WeatherCatV1.14B232,2013-05-30 20:57:00,
2013-05-30 17:02:00,86.0,67.4,29.92,East,95,6.0,9.0,54,0.00,,,0.00,107,WeatherCatV1.14B232,2013-05-30 21:02:00,
2013-05-30 17:07:00,86.0,66.8,29.92,WSW,238,2.0,5.0,53,0.00,,,0.00,113,WeatherCatV1.14B232,2013-05-30 21:07:00,
2013-05-30 17:12:00,85.9,66.2,29.92,East,92,4.0,8.0,52,0.00,,,0.00,90,WeatherCatV1.14B232,2013-05-30 21:12:00,
2013-05-30 17:17:00,85.7,66.6,29.92,East,89,4.0,7.0,53,0.00,,,0.00,88,WeatherCatV1.14B232,2013-05-30 21:17:00,
2013-05-30 17:22:00,85.5,66.4,29.92,East,86,3.0,9.0,53,0.00,,,0.00,84,WeatherCatV1.14B232,2013-05-30 21:22:00,
2013-05-30 17:27:00,85.4,66.3,29.92,SE,142,7.0,8.0,53,0.00,,,0.00,84,WeatherCatV1.14B232,2013-05-30 21:27:00,
2013-05-30 17:32:00,85.3,66.2,29.92,ESE,107,2.0,8.0,53,0.00,,,0.00,88,WeatherCatV1.14B232,2013-05-30 21:32:00,
2013-05-30 17:37:00,85.2,66.1,29.91,East,85,7.0,9.0,53,0.00,,,0.00,74,WeatherCatV1.14B232,2013-05-30 21:37:00,
2013-05-30 17:42:00,85.0,65.9,29.92,East,94,6.0,9.0,53,0.00,,,0.00,74,WeatherCatV1.14B232,2013-05-30 21:42:00,
2013-05-30 17:47:00,84.9,66.4,29.91,ESE,117,2.0,6.0,54,0.00,,,0.00,104,WeatherCatV1.14B232,2013-05-30 21:47:00,
2013-05-30 17:52:00,84.8,66.3,29.91,East,96,5.0,9.0,54,0.00,,,0.00,70,WeatherCatV1.14B232,2013-05-30 21:52:00,
2013-05-30 17:57:00,84.6,66.6,29.91,ESE,120,5.0,9.0,55,0.00,,,0.00,67,WeatherCatV1.14B232,2013-05-30 21:57:00,
2013-05-30 18:02:00,84.4,67.0,29.91,South,169,0.0,8.0,56,0.00,,,0.00,65,WeatherCatV1.14B232,2013-05-30 22:02:00,
2013-05-30 18:07:00,84.3,66.3,29.91,ESE,104,2.0,9.0,55,0.00,,,0.00,63,WeatherCatV1.14B232,2013-05-30 22:07:00,
2013-05-30 18:12:00,84.2,66.8,29.91,SSE,154,7.0,7.0,56,0.00,,,0.00,62,WeatherCatV1.14B232,2013-05-30 22:12:00,
2013-05-30 18:17:00,84.1,66.7,29.91,ENE,77,4.0,7.0,56,0.00,,,0.00,65,WeatherCatV1.14B232,2013-05-30 22:17:00,
2013-05-30 18:22:00,84.0,66.6,29.91,ESE,115,5.0,7.0,56,0.00,,,0.00,84,WeatherCatV1.14B232,2013-05-30 22:22:00,
2013-05-30 18:27:00,84.0,66.6,29.91,ESE,108,7.0,7.0,56,0.00,,,0.00,74,WeatherCatV1.14B232,2013-05-30 22:27:00,
2013-05-30 18:32:00,84.0,66.6,29.91,ESE,114,4.0,7.0,56,0.00,,,0.00,51,WeatherCatV1.14B232,2013-05-30 22:32:00,
2013-05-30 18:37:00,83.9,67.0,29.91,ESE,107,4.0,5.0,57,0.00,,,0.00,49,WeatherCatV1.14B232,2013-05-30 22:37:00,
2013-05-30 18:42:00,83.8,66.9,29.91,ESE,105,4.0,8.0,57,0.00,,,0.00,46,WeatherCatV1.14B232,2013-05-30 22:42:00,
2013-05-30 18:47:00,83.7,66.8,29.91,East,96,5.0,9.0,57,0.00,,,0.00,44,WeatherCatV1.14B232,2013-05-30 22:47:00,
2013-05-30 18:52:00,83.6,66.7,29.91,East,90,1.0,4.0,57,0.00,,,0.00,97,WeatherCatV1.14B232,2013-05-30 22:52:00,
2013-05-30 18:57:00,83.5,67.1,29.91,ESE,109,5.0,7.0,58,0.00,,,0.00,39,WeatherCatV1.14B232,2013-05-30 22:57:00,
2013-05-30 19:02:00,83.4,67.0,29.91,ESE,106,4.0,7.0,58,0.00,,,0.00,42,WeatherCatV1.14B232,2013-05-30 23:02:00,
2013-05-30 19:07:00,83.2,66.9,29.91,East,89,1.0,6.0,58,0.00,,,0.00,33,WeatherCatV1.14B232,2013-05-30 23:07:00,
2013-05-30 19:12:00,82.9,66.6,29.91,ESE,104,4.0,7.0,58,0.00,,,0.00,30,WeatherCatV1.14B232,2013-05-30 23:12:00,
2013-05-30 19:17:00,82.7,66.4,29.91,ESE,119,1.0,4.0,58,0.00,,,0.00,28,WeatherCatV1.14B232,2013-05-30 23:17:00,
2013-05-30 19:22:00,82.4,66.6,29.91,ENE,78,0.0,2.0,59,0.00,,,0.00,26,WeatherCatV1.14B232,2013-05-30 23:22:00,
2013-05-30 19:28:00,82.0,66.7,29.91,East,98,1.0,4.0,60,0.00,,,0.00,23,WeatherCatV1.14B232,2013-05-30 23:28:00,
2013-05-30 19:33:00,81.7,65.9,29.91,SSE,167,1.0,5.0,59,0.00,,,0.00,21,WeatherCatV1.14B232,2013-05-30 23:33:00,
2013-05-30 19:38:00,81.4,66.2,29.91,SSE,163,5.0,6.0,60,0.00,,,0.00,19,WeatherCatV1.14B232,2013-05-30 23:38:00,
2013-05-30 19:43:00,81.2,66.0,29.91,SE,130,0.0,4.0,60,0.00,,,0.00,16,WeatherCatV1.14B232,2013-05-30 23:43:00,
2013-05-30 19:48:00,81.1,66.4,29.91,East,101,1.0,5.0,61,0.00,,,0.00,14,WeatherCatV1.14B232,2013-05-30 23:48:00,
2013-05-30 19:53:00,81.0,66.3,29.91,ESE,120,2.0,4.0,61,0.00,,,0.00,11,WeatherCatV1.14B232,2013-05-30 23:53:00,
2013-05-30 19:58:00,80.7,66.4,29.92,SSE,149,4.0,4.0,62,0.00,,,0.00,9,WeatherCatV1.14B232,2013-05-30 23:58:00,
2013-05-30 20:03:00,80.5,66.3,29.91,East,96,1.0,2.0,62,0.00,,,0.00,5,WeatherCatV1.14B232,2013-05-31 00:03:00,
2013-05-30 20:08:00,80.2,66.4,29.92,SE,125,1.0,5.0,63,0.00,,,0.00,5,WeatherCatV1.14B232,2013-05-31 00:08:00,
2013-05-30 20:13:00,80.0,66.7,29.92,SE,126,1.0,4.0,64,0.00,,,0.00,0,WeatherCatV1.14B232,2013-05-31 00:13:00,
2013-05-30 20:18:00,79.9,66.6,29.92,ESE,117,1.0,2.0,64,0.00,,,0.00,0,WeatherCatV1.14B232,2013-05-31 00:18:00,
2013-05-30 20:23:00,79.9,66.6,29.92,ESE,113,4.0,4.0,64,0.00,,,0.00,0,WeatherCatV1.14B232,2013-05-31 00:23:00,
2013-05-30 20:28:00,79.7,66.4,29.92,SSE,165,0.0,5.0,64,0.00,,,0.00,0,WeatherCatV1.14B232,2013-05-31 00:28:00,
2013-05-30 20:33:00,79.5,66.7,29.92,SW,217,1.0,4.0,65,0.00,,,0.00,0,WeatherCatV1.14B232,2013-05-31 00:33:00,
2013-05-30 20:38:00,79.2,65.9,29.92,SE,132,4.0,6.0,64,0.00,,,0.00,0,WeatherCatV1.14B232,2013-05-31 00:38:00,
2013-05-30 20:43:00,79.0,65.8,29.92,SE,132,2.0,5.0,64,0.00,,,0.00,0,WeatherCatV1.14B232,2013-05-31 00:43:00,
2013-05-30 20:48:00,79.0,65.3,29.92,East,88,2.0,4.0,63,0.00,,,0.00,0,WeatherCatV1.14B232,2013-05-31 00:48:00,
2013-05-30 20:53:00,79.1,64.9,29.92,ESE,112,1.0,7.0,62,0.00,,,0.00,0,WeatherCatV1.14B232,2013-05-31 00:53:00,
2013-05-30 20:58:00,79.3,65.1,29.92,ESE,121,5.0,9.0,62,0.00,,,0.00,0,WeatherCatV1.14B232,2013-05-31 00:58:00,
2013-05-30 21:03:00,79.3,65.1,29.92,East,90,5.0,6.0,62,0.00,,,0.00,0,WeatherCatV1.14B232,2013-05-31 01:03:00,
2013-05-30 21:08:00,79.2,65.0,29.92,ESE,121,4.0,4.0,62,0.00,,,0.00,0,WeatherCatV1.14B232,2013-05-31 01:08:00,
2013-05-30 21:13:00,79.1,64.9,29.92,ESE,103,4.0,6.0,62,0.00,,,0.00,0,WeatherCatV1.14B232,2013-05-31 01:13:00,
2013-05-30 21:18:00,78.9,64.8,29.92,East,84,1.0,7.0,62,0.00,,,0.00,0,WeatherCatV1.14B232,2013-05-31 01:18:00,
2013-05-30 21:23:00,78.9,64.8,29.92,SE,128,8.0,8.0,62,0.00,,,0.00,0,WeatherCatV1.14B232,2013-05-31 01:23:00,
2013-05-30 21:28:00,78.9,64.8,29.92,East,95,4.0,6.0,62,0.00,,,0.00,0,WeatherCatV1.14B232,2013-05-31 01:28:00,
2013-05-30 21:33:00,78.8,64.7,29.92,ENE,71,2.0,2.0,62,0.00,,,0.00,0,WeatherCatV1.14B232,2013-05-31 01:33:00,
2013-05-30 21:38:00,78.8,64.7,29.92,East,92,2.0,3.0,62,0.00,,,0.00,0,WeatherCatV1.14B232,2013-05-31 01:38:00,
2013-05-30 21:43:00,78.8,64.2,29.93,East,99,1.0,5.0,61,0.00,,,0.00,0,WeatherCatV1.14B232,2013-05-31 01:43:00,
2013-05-30 21:48:00,78.9,64.3,29.93,ESE,105,2.0,6.0,61,0.00,,,0.00,0,WeatherCatV1.14B232,2013-05-31 01:48:00,
2013-05-30 21:53:00,79.0,63.9,29.93,ESE,112,6.0,6.0,60,0.00,,,0.00,0,WeatherCatV1.14B232,2013-05-31 01:53:00,
2013-05-30 21:58:00,79.1,64.0,29.93,East,82,5.0,6.0,60,0.00,,,0.00,0,WeatherCatV1.14B232,2013-05-31 01:58:00,
2013-05-30 22:03:00,79.3,64.2,29.93,East,96,1.0,4.0,60,0.00,,,0.00,0,WeatherCatV1.14B232,2013-05-31 02:03:00,
2013-05-30 22:08:00,79.2,64.1,29.93,East,101,0.0,4.0,60,0.00,,,0.00,0,WeatherCatV1.14B232,2013-05-31 02:08:00,
2013-05-30 22:13:00,79.2,63.6,29.93,South,176,0.0,4.0,59,0.00,,,0.00,0,WeatherCatV1.14B232,2013-05-31 02:13:00,
2013-05-30 22:18:00,79.1,64.0,29.93,ESE,115,4.0,5.0,60,0.00,,,0.00,0,WeatherCatV1.14B232,2013-05-31 02:18:00,
2013-05-30 22:23:00,79.1,64.0,29.93,ESE,105,2.0,5.0,60,0.00,,,0.00,0,WeatherCatV1.14B232,2013-05-31 02:23:00,
2013-05-30 22:28:00,78.8,63.7,29.93,ESE,105,0.0,6.0,60,0.00,,,0.00,0,WeatherCatV1.14B232,2013-05-31 02:28:00,
2013-05-30 22:33:00,78.6,64.0,29.93,SSW,200,2.0,3.0,61,0.00,,,0.00,0,WeatherCatV1.14B232,2013-05-31 02:33:00,
2013-05-30 22:38:00,78.4,63.8,29.93,East,80,0.0,4.0,61,0.00,,,0.00,0,WeatherCatV1.14B232,2013-05-31 02:38:00,
2013-05-30 22:43:00,78.4,63.8,29.93,East,94,1.0,4.0,61,0.00,,,0.00,0,WeatherCatV1.14B232,2013-05-31 02:43:00,
2013-05-30 22:48:00,78.2,63.6,29.93,SW,230,2.0,3.0,61,0.00,,,0.00,0,WeatherCatV1.14B232,2013-05-31 02:48:00,
2013-05-30 22:53:00,78.2,63.6,29.93,East,97,1.0,5.0,61,0.00,,,0.00,0,WeatherCatV1.14B232,2013-05-31 02:53:00,
2013-05-30 22:58:00,78.1,64.0,29.93,ESE,106,2.0,2.0,62,0.00,,,0.00,0,WeatherCatV1.14B232,2013-05-31 02:58:00,
2013-05-30 23:03:00,78.0,63.9,29.93,SW,229,2.0,2.0,62,0.00,,,0.00,0,WeatherCatV1.14B232,2013-05-31 03:03:00,
2013-05-30 23:08:00,78.0,63.9,29.93,East,98,1.0,2.0,62,0.00,,,0.00,0,WeatherCatV1.14B232,2013-05-31 03:08:00,
2013-05-30 23:13:00,77.9,63.8,29.93,SW,221,1.0,4.0,62,0.00,,,0.00,0,WeatherCatV1.14B232,2013-05-31 03:13:00,
2013-05-30 23:18:00,77.8,63.7,29.94,ESE,116,1.0,2.0,62,0.00,,,0.00,0,WeatherCatV1.14B232,2013-05-31 03:18:00,
2013-05-30 23:23:00,77.7,64.1,29.94,SSW,211,2.0,5.0,63,0.00,,,0.00,0,WeatherCatV1.14B232,2013-05-31 03:23:00,
2013-05-30 23:28:00,77.5,63.9,29.94,ESE,112,1.0,4.0,63,0.00,,,0.00,0,WeatherCatV1.14B232,2013-05-31 03:28:00,
2013-05-30 23:33:00,77.1,63.5,29.94,ESE,121,1.0,7.0,63,0.00,,,0.00,0,WeatherCatV1.14B232,2013-05-31 03:33:00,
2013-05-30 23:38:00,76.9,63.3,29.94,SE,140,2.0,5.0,63,0.00,,,0.00,0,WeatherCatV1.14B232,2013-05-31 03:38:00,
2013-05-30 23:43:00,76.7,63.6,29.94,ESE,117,1.0,4.0,64,0.00,,,0.00,0,WeatherCatV1.14B232,2013-05-31 03:43:00,
2013-05-30 23:48:00,76.6,63.9,29.94,ESE,105,4.0,4.0,65,0.00,,,0.00,0,WeatherCatV1.14B232,2013-05-31 03:48:00,
2013-05-30 23:53:00,76.7,64.0,29.94,East,96,4.0,4.0,65,0.00,,,0.00,0,WeatherCatV1.14B232,2013-05-31 03:53:00,
2013-05-30 23:58:00,76.8,64.1,29.94,SW,235,2.0,6.0,65,0.00,,,0.00,0,WeatherCatV1.14B232,2013-05-31 03:58:00,